Orbital elements of COSMOS 970 DEB
| Launched | 20 December 1977 |
| Flight ended | – |
| Launch site | Tyuratam Missile and Space Center, Kazakhstan (Also known as Baikonur Cosmodrome) |
| Owner | Commonwealth of Independent States (former USSR) |
| NORAD ID | 10568 |
| Date fetched |
Epoch osculation |
Inc. [°] |
Ecc. | RA asc node [hr] |
Arg Peri. [°] |
Mean anom [°] |
Mean motion [rev/day] |
Abs. mag |
| Date fetched |
Epoch osculation |
Inc. [°] |
Ecc. | RA asc node [hr] |
Arg Peri. [°] |
Mean anom [°] |
Mean motion [rev/day] |
Abs. mag |
| 2026 May 03 17:57 | 2026 Apr 30 10:46:06 | 65.7670 | 0.01916 | 9.1318 | 133.4373 | 228.2806 | 13.65536 | – |
| 2026 May 02 17:57 | 2026 Apr 30 10:46:06 | 65.7670 | 0.01916 | 9.1318 | 133.4373 | 228.2806 | 13.65536 | – |
| 2026 May 01 17:56 | 2026 Apr 30 10:46:06 | 65.7670 | 0.01916 | 9.1318 | 133.4373 | 228.2806 | 13.65536 | – |
| 2026 Apr 30 17:56 | 2026 Apr 30 10:46:06 | 65.7670 | 0.01916 | 9.1318 | 133.4373 | 228.2806 | 13.65536 | – |
| 2026 Apr 29 17:57 | 2026 Apr 24 10:38:05 | 65.7675 | 0.01920 | 10.1083 | 136.3691 | 228.2806 | 13.65536 | – |
| 2026 Apr 28 17:56 | 2026 Apr 24 10:38:05 | 65.7675 | 0.01920 | 10.1083 | 136.3691 | 228.2806 | 13.65536 | – |
| 2026 Apr 27 17:58 | 2026 Apr 24 10:38:05 | 65.7675 | 0.01920 | 10.1083 | 136.3691 | 228.2806 | 13.65536 | – |
| 2026 Apr 26 17:58 | 2026 Apr 24 10:38:05 | 65.7675 | 0.01920 | 10.1083 | 136.3691 | 228.2806 | 13.65536 | – |
| 2026 Apr 25 17:58 | 2026 Apr 24 10:38:05 | 65.7675 | 0.01920 | 10.1083 | 136.3691 | 228.2806 | 13.65536 | – |
| 2026 Apr 24 17:59 | 2026 Apr 24 10:38:05 | 65.7675 | 0.01920 | 10.1083 | 136.3691 | 228.2806 | 13.65536 | – |
| 2026 Apr 23 17:57 | 2026 Apr 19 04:04:40 | 65.7685 | 0.01925 | 10.9656 | 138.9254 | 228.2806 | 13.65536 | – |
| 2026 Apr 22 17:57 | 2026 Apr 19 04:04:40 | 65.7685 | 0.01925 | 10.9656 | 138.9254 | 228.2806 | 13.65536 | – |
| 2026 Apr 21 17:57 | 2026 Apr 19 04:04:40 | 65.7685 | 0.01925 | 10.9656 | 138.9254 | 228.2806 | 13.65536 | – |
| 2026 Apr 20 17:57 | 2026 Apr 19 04:04:40 | 65.7685 | 0.01925 | 10.9656 | 138.9254 | 228.2806 | 13.65536 | – |
| 2026 Apr 19 17:58 | 2026 Apr 19 04:04:40 | 65.7685 | 0.01925 | 10.9656 | 138.9254 | 228.2806 | 13.65536 | – |
| 2026 Apr 18 17:56 | 2026 Apr 13 03:56:37 | 65.7689 | 0.01931 | 11.9420 | 141.8157 | 228.2806 | 13.65536 | – |
| 2026 Apr 16 17:57 | 2026 Apr 13 03:56:37 | 65.7689 | 0.01931 | 11.9420 | 141.8157 | 228.2806 | 13.65536 | – |
| 2026 Apr 14 17:57 | 2026 Apr 13 03:56:37 | 65.7689 | 0.01931 | 11.9420 | 141.8157 | 228.2806 | 13.65536 | – |
| 2026 Apr 13 17:57 | 2026 Apr 13 03:56:37 | 65.7689 | 0.01931 | 11.9420 | 141.8157 | 228.2806 | 13.65536 | – |
| 2026 Apr 12 17:57 | 2026 Apr 08 13:12:22 | 65.7694 | 0.01935 | 12.6921 | 144.0222 | 228.2806 | 13.65536 | – |
| 2026 Apr 11 17:57 | 2026 Apr 08 13:12:22 | 65.7694 | 0.01935 | 12.6921 | 144.0222 | 228.2806 | 13.65536 | – |
| 2026 Apr 10 17:58 | 2026 Apr 08 13:12:22 | 65.7694 | 0.01935 | 12.6921 | 144.0222 | 228.2806 | 13.65536 | – |
| 2026 Apr 09 18:01 | 2026 Apr 08 13:12:22 | 65.7694 | 0.01935 | 12.6921 | 144.0222 | 228.2806 | 13.65536 | – |
| 2026 Apr 08 17:57 | 2026 Apr 08 13:12:22 | 65.7694 | 0.01935 | 12.6921 | 144.0222 | 228.2806 | 13.65536 | – |
| 2026 Apr 07 17:57 | 2026 Apr 01 07:11:21 | 65.7690 | 0.01941 | 13.8709 | 147.4761 | 228.2806 | 13.65536 | – |
| 2026 Apr 06 17:57 | 2026 Apr 01 07:11:21 | 65.7690 | 0.01941 | 13.8709 | 147.4761 | 228.2806 | 13.65536 | – |